createdAt,value
2023-05-08T00:01:31.588Z,9.43
2023-05-08T00:03:58.993Z,9.23
2023-05-08T00:06:27.807Z,9.97
2023-05-08T00:08:55.490Z,9.57
2023-05-08T00:11:22.817Z,10.10
2023-05-08T00:13:49.944Z,10.50
2023-05-08T00:16:17.224Z,10.43
2023-05-08T00:18:44.481Z,9.87
2023-05-08T00:21:11.698Z,10.73
2023-05-08T00:23:38.852Z,10.97
2023-05-08T00:26:06.330Z,11.20
2023-05-08T00:28:33.495Z,10.80
2023-05-08T00:31:02.067Z,11.20
2023-05-08T00:33:29.351Z,11.43
2023-05-08T00:36:01.502Z,11.50
2023-05-08T00:38:36.143Z,11.97
2023-05-08T00:41:03.487Z,11.57
2023-05-08T00:43:30.754Z,11.90
2023-05-08T00:46:01.494Z,11.90
2023-05-08T00:48:31.953Z,12.13
2023-05-08T00:51:00.793Z,11.40
2023-05-08T00:53:30.868Z,11.97
2023-05-08T00:55:58.790Z,12.10
2023-05-08T00:58:27.370Z,12.63
2023-05-08T01:00:56.641Z,11.33
2023-05-08T01:03:24.895Z,12.57
2023-05-08T01:05:52.317Z,12.83
2023-05-08T01:08:19.604Z,12.83
2023-05-08T01:11:06.020Z,12.27
2023-05-08T01:13:47.969Z,13.30
2023-05-08T01:16:38.411Z,12.93
2023-05-08T01:19:36.255Z,13.00
2023-05-08T01:22:31.236Z,12.40
2023-05-08T01:25:45.899Z,13.67
2023-05-08T01:28:31.913Z,13.93
2023-05-08T01:31:01.229Z,13.73
2023-05-08T01:33:44.021Z,13.17
2023-05-08T01:36:50.229Z,14.40
2023-05-08T01:39:39.275Z,13.77
2023-05-08T01:42:13.832Z,13.57
2023-05-08T01:44:51.664Z,14.03
2023-05-08T01:47:24.038Z,13.37
2023-05-08T01:50:02.078Z,13.70
2023-05-08T01:52:36.850Z,13.10
2023-05-08T01:55:08.846Z,13.33
2023-05-08T01:57:40.221Z,13.87
2023-05-08T02:00:10.081Z,13.30
2023-05-08T02:02:40.934Z,12.80
2023-05-08T02:05:09.253Z,13.40
2023-05-08T02:07:40.652Z,13.50
2023-05-08T02:10:08.877Z,13.60
2023-05-08T02:12:37.860Z,13.43
2023-05-08T02:15:08.015Z,13.23
2023-05-08T02:17:39.626Z,13.47
2023-05-08T02:20:14.637Z,13.27
2023-05-08T02:22:47.986Z,13.73
2023-05-08T02:25:16.227Z,12.77
2023-05-08T02:27:47.503Z,13.47
2023-05-08T02:30:17.502Z,12.50
2023-05-08T02:32:46.626Z,12.67
2023-05-08T02:35:16.884Z,13.67
2023-05-08T02:37:51.533Z,12.90
2023-05-08T02:40:20.441Z,11.47
2023-05-08T02:42:47.820Z,12.30
2023-05-08T02:45:15.237Z,12.03
2023-05-08T02:48:03.463Z,11.93
2023-05-08T02:50:40.780Z,11.70
2023-05-08T02:53:16.070Z,11.47
2023-05-08T02:55:49.099Z,11.33
2023-05-08T02:58:29.966Z,10.80
2023-05-08T03:01:06.579Z,10.97
2023-05-08T03:03:59.293Z,11.90
2023-05-08T03:06:28.098Z,10.73
2023-05-08T03:08:59.656Z,11.57
2023-05-08T03:11:38.653Z,11.73
2023-05-08T03:14:09.844Z,11.80
2023-05-08T03:16:39.603Z,11.53
2023-05-08T03:19:12.758Z,11.60
2023-05-08T03:21:43.007Z,11.83
2023-05-08T03:24:12.114Z,11.77
2023-05-08T03:26:39.428Z,11.63
2023-05-08T03:29:07.637Z,10.90
2023-05-08T03:31:36.332Z,11.57
2023-05-08T03:34:04.997Z,11.33
2023-05-08T03:36:32.664Z,11.43
2023-05-08T03:39:00.944Z,11.77
2023-05-08T03:41:28.462Z,11.87
2023-05-08T03:43:57.088Z,12.17
2023-05-08T03:46:25.711Z,11.00
2023-05-08T03:48:54.287Z,11.40
2023-05-08T03:51:22.700Z,10.70
2023-05-08T03:53:51.323Z,11.63
2023-05-08T03:56:19.096Z,10.37
2023-05-08T03:58:52.490Z,10.57
2023-05-08T04:01:37.295Z,10.80
2023-05-08T04:04:10.199Z,10.17
2023-05-08T04:07:19.234Z,10.37
2023-05-08T04:10:05.067Z,10.47
2023-05-08T04:12:40.572Z,10.57
2023-05-08T04:15:28.381Z,11.13
2023-05-08T04:18:00.344Z,10.50
2023-05-08T04:20:31.454Z,10.43
2023-05-08T04:23:01.022Z,9.90
2023-05-08T04:25:30.911Z,10.40
2023-05-08T04:27:59.539Z,10.20
2023-05-08T04:30:29.910Z,10.70
2023-05-08T04:32:58.010Z,10.37
2023-05-08T04:35:26.286Z,10.27
2023-05-08T04:37:53.729Z,10.10
2023-05-08T04:40:21.115Z,10.13
2023-05-08T04:42:48.420Z,11.00
2023-05-08T04:45:18.823Z,10.40
2023-05-08T04:47:46.115Z,9.97
2023-05-08T04:50:13.726Z,10.70
2023-05-08T04:52:42.657Z,10.37
2023-05-08T04:55:10.750Z,11.43
2023-05-08T04:57:39.479Z,11.77
2023-05-08T05:00:07.326Z,10.73
2023-05-08T05:02:38.817Z,10.97
2023-05-08T05:05:07.219Z,11.00
2023-05-08T05:07:34.834Z,11.43
2023-05-08T05:10:02.917Z,11.17
2023-05-08T05:12:31.519Z,11.30
2023-05-08T05:14:59.024Z,10.73
2023-05-08T05:17:30.739Z,11.47
2023-05-08T05:19:58.242Z,12.30
2023-05-08T05:22:25.715Z,11.13
2023-05-08T05:24:53.159Z,10.30
2023-05-08T05:27:21.419Z,11.10
2023-05-08T05:29:49.146Z,11.30
2023-05-08T05:32:16.408Z,11.07
2023-05-08T05:34:43.611Z,11.60
2023-05-08T05:37:11.034Z,11.07
2023-05-08T05:39:38.574Z,10.93
2023-05-08T05:42:06.526Z,10.90
2023-05-08T05:44:33.791Z,11.00
2023-05-08T05:47:01.085Z,10.83
2023-05-08T05:49:28.336Z,10.33
2023-05-08T05:51:56.070Z,12.03
2023-05-08T05:54:23.339Z,11.00
2023-05-08T05:56:50.520Z,10.47
2023-05-08T05:59:18.334Z,11.80
2023-05-08T06:01:45.685Z,11.03
2023-05-08T06:04:13.141Z,11.00
2023-05-08T06:06:40.385Z,10.53
2023-05-08T06:09:07.578Z,10.47
2023-05-08T06:11:34.813Z,10.60
2023-05-08T06:14:02.576Z,10.30
2023-05-08T06:16:30.679Z,10.37
2023-05-08T06:18:57.937Z,10.40
2023-05-08T06:21:26.698Z,10.80
2023-05-08T06:23:54.059Z,10.30
2023-05-08T06:26:23.533Z,9.73
2023-05-08T06:28:50.835Z,9.77
2023-05-08T06:31:18.789Z,10.80
2023-05-08T06:33:46.058Z,10.03
2023-05-08T06:36:13.437Z,10.47
2023-05-08T06:38:40.641Z,10.93
2023-05-08T06:41:07.839Z,9.97
2023-05-08T06:43:35.006Z,10.43
2023-05-08T06:46:02.212Z,10.20
2023-05-08T06:48:29.605Z,10.07
2023-05-08T06:50:56.800Z,11.17
2023-05-08T06:53:25.798Z,10.80
2023-05-08T06:55:52.984Z,11.13
2023-05-08T06:58:20.289Z,10.10
2023-05-08T07:00:47.443Z,10.77
2023-05-08T07:03:14.758Z,10.63
2023-05-08T07:05:42.270Z,10.17
2023-05-08T07:08:09.458Z,10.67
2023-05-08T07:10:36.612Z,9.60
2023-05-08T07:13:03.836Z,10.03
2023-05-08T07:15:34.065Z,9.80
2023-05-08T07:18:01.549Z,9.37
2023-05-08T07:20:28.887Z,9.53
2023-05-08T07:22:56.117Z,9.80
2023-05-08T07:25:23.328Z,9.40
2023-05-08T07:27:50.584Z,9.67
2023-05-08T07:30:18.030Z,10.07
2023-05-08T07:32:45.477Z,9.50
2023-05-08T07:35:13.381Z,8.73
2023-05-08T07:37:40.792Z,9.37
2023-05-08T07:40:08.735Z,9.73
2023-05-08T07:42:42.909Z,9.27
2023-05-08T07:45:12.168Z,9.10
2023-05-08T07:47:49.276Z,9.23
2023-05-08T07:50:16.646Z,9.10
2023-05-08T07:52:43.885Z,8.87
2023-05-08T07:55:11.406Z,8.97
2023-05-08T07:57:40.615Z,9.57
2023-05-08T08:00:13.264Z,9.00
2023-05-08T08:02:45.038Z,8.90
2023-05-08T08:05:13.139Z,9.57
2023-05-08T08:07:40.735Z,9.43
2023-05-08T08:10:08.462Z,9.47
2023-05-08T08:12:35.961Z,9.47
2023-05-08T08:15:03.550Z,9.13
2023-05-08T08:17:30.860Z,9.10
2023-05-08T08:19:58.213Z,9.93
2023-05-08T08:22:26.305Z,9.30
2023-05-08T08:24:56.267Z,10.10
2023-05-08T08:27:23.940Z,9.43
2023-05-08T08:29:58.549Z,9.60
2023-05-08T08:32:28.669Z,9.87
2023-05-08T08:34:56.413Z,10.03
2023-05-08T08:37:24.330Z,10.27
2023-05-08T08:39:51.674Z,10.47
2023-05-08T08:42:18.906Z,9.83
2023-05-08T08:44:46.471Z,9.73
2023-05-08T08:47:17.940Z,10.50
2023-05-08T08:49:49.296Z,10.37
2023-05-08T08:52:31.933Z,10.63
2023-05-08T08:55:02.292Z,11.23
2023-05-08T08:57:33.996Z,10.50
2023-05-08T09:00:07.316Z,11.43
2023-05-08T09:02:35.351Z,11.23
2023-05-08T09:05:03.536Z,9.73
2023-05-08T09:07:30.826Z,11.37
2023-05-08T09:09:58.469Z,11.40
2023-05-08T09:12:25.753Z,11.27
2023-05-08T09:14:53.039Z,11.37
2023-05-08T09:17:20.174Z,11.47
2023-05-08T09:19:49.502Z,10.70
2023-05-08T09:22:17.620Z,11.83
2023-05-08T09:24:58.805Z,11.43
2023-05-08T09:27:28.815Z,12.77
2023-05-08T09:30:18.308Z,12.07
2023-05-08T09:32:45.687Z,12.00
2023-05-08T09:35:13.888Z,11.97
2023-05-08T09:37:46.352Z,11.83
2023-05-08T09:40:26.859Z,12.87
2023-05-08T09:42:58.646Z,12.33
2023-05-08T09:45:27.490Z,12.87
2023-05-08T09:47:54.849Z,12.97
2023-05-08T09:50:22.183Z,12.20
2023-05-08T09:52:50.718Z,13.00
2023-05-08T09:55:18.284Z,13.10
2023-05-08T09:57:57.925Z,14.57
2023-05-08T10:00:27.593Z,14.77
2023-05-08T10:03:02.844Z,14.40
2023-05-08T10:05:32.575Z,14.70
2023-05-08T10:08:23.370Z,14.40
2023-05-08T10:10:51.083Z,14.53
2023-05-08T10:13:18.357Z,15.77
2023-05-08T10:15:48.706Z,16.10
2023-05-08T10:18:18.801Z,16.00
2023-05-08T10:20:48.703Z,16.13
2023-05-08T10:23:17.848Z,15.37
2023-05-08T10:25:46.678Z,16.20
2023-05-08T10:28:37.579Z,16.73
2023-05-08T10:31:07.821Z,17.07
2023-05-08T10:33:37.632Z,15.73
2023-05-08T10:36:05.802Z,16.23
2023-05-08T10:38:33.852Z,15.40
2023-05-08T10:41:02.122Z,15.50
2023-05-08T10:43:33.648Z,16.00
2023-05-08T10:46:08.741Z,17.43
2023-05-08T10:48:43.700Z,16.80
2023-05-08T10:51:16.864Z,16.37
2023-05-08T10:53:59.248Z,15.20
2023-05-08T10:56:27.438Z,16.37
2023-05-08T10:58:58.938Z,17.00
2023-05-08T11:01:27.128Z,18.27
2023-05-08T11:03:57.331Z,16.87
2023-05-08T11:06:44.488Z,18.63
2023-05-08T11:09:20.152Z,17.20
2023-05-08T11:12:00.335Z,16.70
2023-05-08T11:14:28.783Z,18.20
2023-05-08T11:17:01.860Z,17.00
2023-05-08T11:19:29.641Z,17.27
2023-05-08T11:22:29.056Z,18.43
2023-05-08T11:24:58.582Z,19.07
2023-05-08T11:27:50.906Z,19.53
2023-05-08T11:30:25.652Z,19.50
2023-05-08T11:33:15.247Z,19.37
2023-05-08T11:35:57.315Z,20.27
2023-05-08T11:38:27.270Z,20.13
2023-05-08T11:40:58.223Z,19.67
2023-05-08T11:43:36.243Z,18.80
2023-05-08T11:46:18.041Z,18.50
2023-05-08T11:48:45.376Z,17.80
2023-05-08T11:51:13.681Z,18.97
2023-05-08T11:53:41.035Z,18.03
2023-05-08T11:56:08.685Z,16.83
2023-05-08T11:58:36.638Z,17.73
2023-05-08T12:01:04.029Z,18.07
2023-05-08T12:03:33.316Z,17.57
2023-05-08T12:06:00.692Z,19.17
2023-05-08T12:08:28.083Z,19.47
2023-05-08T12:10:57.043Z,18.90
2023-05-08T12:13:29.385Z,19.40
2023-05-08T12:15:58.830Z,18.87
2023-05-08T12:18:28.304Z,18.57
2023-05-08T12:21:00.219Z,19.50
2023-05-08T12:23:29.420Z,19.80
2023-05-08T12:26:00.943Z,19.53
2023-05-08T12:28:28.926Z,18.53
2023-05-08T12:30:56.724Z,18.87
2023-05-08T12:33:24.567Z,17.50
2023-05-08T12:35:51.865Z,16.07
2023-05-08T12:38:19.161Z,15.73
2023-05-08T12:40:52.854Z,15.10
2023-05-08T12:43:20.169Z,14.50
2023-05-08T12:45:51.449Z,14.50
2023-05-08T12:48:19.323Z,16.30
2023-05-08T12:50:46.878Z,17.00
2023-05-08T12:53:18.544Z,16.60
2023-05-08T12:56:01.017Z,16.40
2023-05-08T12:58:33.186Z,15.27
2023-05-08T13:01:11.834Z,16.90
2023-05-08T13:03:40.593Z,16.00
2023-05-08T13:06:18.656Z,18.30
2023-05-08T13:08:45.906Z,17.90
2023-05-08T13:11:13.134Z,17.60
2023-05-08T13:13:40.350Z,19.17
2023-05-08T13:16:08.006Z,19.50
2023-05-08T13:18:36.766Z,20.13
2023-05-08T13:21:04.205Z,20.70
2023-05-08T13:23:31.441Z,20.10
2023-05-08T13:25:58.686Z,19.43
2023-05-08T13:28:25.886Z,19.87
2023-05-08T13:30:53.041Z,52.43
2023-05-08T13:33:20.235Z,23.83
2023-05-08T13:35:47.453Z,21.27
2023-05-08T13:38:14.731Z,20.10
2023-05-08T13:40:42.039Z,19.60
2023-05-08T13:43:09.249Z,17.77
2023-05-08T13:45:36.772Z,18.50
2023-05-08T13:48:04.259Z,18.40
2023-05-08T13:50:31.540Z,17.83
2023-05-08T13:52:58.807Z,18.43
2023-05-08T13:55:26.121Z,17.00
2023-05-08T13:57:53.327Z,16.90
2023-05-08T14:00:20.640Z,17.97
2023-05-08T14:02:50.047Z,16.67
2023-05-08T14:05:18.851Z,17.70
2023-05-08T14:07:46.627Z,19.27
2023-05-08T14:10:13.889Z,18.83
2023-05-08T14:12:41.146Z,17.07
2023-05-08T14:15:08.997Z,18.10
2023-05-08T14:17:36.222Z,17.70
2023-05-08T14:20:04.128Z,16.50
2023-05-08T14:22:31.287Z,16.30
2023-05-08T14:24:58.464Z,16.50
2023-05-08T14:27:25.615Z,16.17
2023-05-08T14:29:53.630Z,14.00
2023-05-08T14:32:21.016Z,12.43
2023-05-08T14:34:48.353Z,12.40
2023-05-08T14:37:17.424Z,12.80
2023-05-08T14:39:45.443Z,12.57
2023-05-08T14:44:42.755Z,11.60
2023-05-08T14:47:10.116Z,10.53
2023-05-08T14:49:38.769Z,13.43
2023-05-08T14:52:07.443Z,13.60
2023-05-08T14:54:35.010Z,12.67
2023-05-08T14:57:02.401Z,12.47
2023-05-08T14:59:29.590Z,11.80
2023-05-08T15:01:56.791Z,12.13
2023-05-08T15:04:24.138Z,12.20
2023-05-08T15:06:51.331Z,11.67
2023-05-08T15:09:18.484Z,12.40
2023-05-08T15:11:45.682Z,12.23
2023-05-08T15:14:12.860Z,11.93
2023-05-08T15:16:40.166Z,11.67
2023-05-08T15:19:09.274Z,11.57
2023-05-08T15:21:36.568Z,11.23
2023-05-08T15:24:05.490Z,13.00
2023-05-08T15:26:32.716Z,12.50
2023-05-08T15:28:59.868Z,11.90
2023-05-08T15:31:27.077Z,12.33
2023-05-08T15:33:54.320Z,13.37
2023-05-08T15:36:22.061Z,13.23
2023-05-08T15:38:49.300Z,13.30
2023-05-08T15:41:16.519Z,13.17
2023-05-08T15:43:45.191Z,13.40
2023-05-08T15:46:12.638Z,13.30
2023-05-08T15:48:39.825Z,10.73
2023-05-08T15:51:07.042Z,10.97
2023-05-08T15:53:35.191Z,10.77
2023-05-08T15:56:04.663Z,12.10
2023-05-08T15:58:31.814Z,11.93
2023-05-08T16:00:59.077Z,11.60
2023-05-08T16:03:26.418Z,12.00
2023-05-08T16:05:53.676Z,12.00
2023-05-08T16:08:20.866Z,12.70
2023-05-08T16:10:48.570Z,12.53
2023-05-08T16:13:16.416Z,12.80
2023-05-08T16:15:43.821Z,12.83
2023-05-08T16:18:11.229Z,14.37
2023-05-08T16:20:40.340Z,13.73
2023-05-08T16:23:07.678Z,12.87
2023-05-08T16:25:35.034Z,12.50
2023-05-08T16:28:02.263Z,12.67
2023-05-08T16:30:29.714Z,11.67
2023-05-08T16:32:56.931Z,12.60
2023-05-08T16:35:24.241Z,12.17
2023-05-08T16:37:51.523Z,12.10
2023-05-08T16:40:18.788Z,13.77
2023-05-08T16:42:46.167Z,13.73
2023-05-08T16:45:13.615Z,12.67
2023-05-08T16:47:43.698Z,13.73
2023-05-08T16:50:11.277Z,12.07
2023-05-08T16:52:38.619Z,13.83
2023-05-08T16:55:06.331Z,12.37
2023-05-08T16:57:33.487Z,13.03
2023-05-08T17:00:01.234Z,13.40
2023-05-08T17:02:28.477Z,13.43
2023-05-08T17:04:55.687Z,13.90
2023-05-08T17:07:23.858Z,14.90
2023-05-08T17:09:56.514Z,15.33
2023-05-08T17:12:24.407Z,15.27
2023-05-08T17:14:51.672Z,16.17
2023-05-08T17:17:18.809Z,16.03
2023-05-08T17:19:45.990Z,17.03
2023-05-08T17:22:13.360Z,17.93
2023-05-08T17:24:40.536Z,16.73
2023-05-08T17:27:08.682Z,17.27
2023-05-08T17:29:35.949Z,16.43
2023-05-08T17:32:03.313Z,17.63
2023-05-08T17:34:30.733Z,16.80
2023-05-08T17:36:58.105Z,16.67
2023-05-08T17:39:25.395Z,16.50
2023-05-08T17:41:52.687Z,16.37
2023-05-08T17:44:19.936Z,16.80
2023-05-08T17:46:47.168Z,16.50
2023-05-08T17:49:16.391Z,16.83
2023-05-08T17:51:45.717Z,17.10
2023-05-08T17:54:13.009Z,17.70
2023-05-08T17:56:40.252Z,17.17
2023-05-08T17:59:07.511Z,17.33
2023-05-08T18:01:34.827Z,17.70
2023-05-08T18:04:02.121Z,16.87
2023-05-08T18:06:29.702Z,17.50
2023-05-08T18:08:56.828Z,17.13
2023-05-08T18:11:26.023Z,17.00
2023-05-08T18:13:53.971Z,18.47
2023-05-08T18:16:22.337Z,18.70
2023-05-08T18:18:50.208Z,17.63
2023-05-08T18:21:17.596Z,17.97
2023-05-08T18:23:44.896Z,18.90
2023-05-08T18:26:16.093Z,18.60
2023-05-08T18:28:44.009Z,20.37
2023-05-08T18:31:11.968Z,19.43
2023-05-08T18:33:39.425Z,19.50
2023-05-08T18:36:06.960Z,18.93
2023-05-08T18:38:35.490Z,26.40
2023-05-08T18:41:04.931Z,17.83
2023-05-08T18:43:32.156Z,18.43
2023-05-08T18:46:00.507Z,18.27
2023-05-08T18:48:28.191Z,20.03
2023-05-08T18:50:58.406Z,18.93
2023-05-08T18:53:25.831Z,19.47
2023-05-08T18:55:53.100Z,18.40
2023-05-08T18:58:20.350Z,18.90
2023-05-08T19:00:47.981Z,18.30
2023-05-08T19:03:15.250Z,19.93
2023-05-08T19:05:42.476Z,20.07
2023-05-08T19:08:10.826Z,19.63
2023-05-08T19:10:37.998Z,18.23
2023-05-08T19:13:05.484Z,18.23
2023-05-08T19:15:32.808Z,18.13
2023-05-08T19:18:01.911Z,17.60
2023-05-08T19:20:30.490Z,17.40
2023-05-08T19:22:57.677Z,17.33
2023-05-08T19:25:24.922Z,19.17
2023-05-08T19:27:52.417Z,18.50
2023-05-08T19:30:19.697Z,18.63
2023-05-08T19:32:46.883Z,19.37
2023-05-08T19:35:14.176Z,19.43
2023-05-08T19:37:41.646Z,18.87
2023-05-08T19:40:09.371Z,19.03
2023-05-08T19:42:36.626Z,19.60
2023-05-08T19:45:04.191Z,22.43
2023-05-08T19:47:31.411Z,19.30
2023-05-08T19:49:58.563Z,19.13
2023-05-08T19:52:25.979Z,19.57
2023-05-08T19:54:53.352Z,19.93
2023-05-08T19:57:20.615Z,20.70
2023-05-08T19:59:47.826Z,20.67
2023-05-08T20:02:15.160Z,20.87
2023-05-08T20:05:04.344Z,20.63
2023-05-08T20:07:29.655Z,20.60
2023-05-08T20:09:57.002Z,20.27
2023-05-08T20:12:24.157Z,20.27
2023-05-08T20:14:52.833Z,20.23
2023-05-08T20:17:20.110Z,20.83
2023-05-08T20:19:47.271Z,20.73
2023-05-08T20:22:14.464Z,19.77
2023-05-08T20:24:41.627Z,19.83
2023-05-08T20:27:08.860Z,19.87
2023-05-08T20:29:36.026Z,20.23
2023-05-08T20:32:03.309Z,20.20
2023-05-08T20:34:30.976Z,20.93
2023-05-08T20:36:59.113Z,20.57
2023-05-08T20:39:26.932Z,21.03
2023-05-08T20:41:54.120Z,20.87
2023-05-08T20:44:21.268Z,21.30
2023-05-08T20:46:48.493Z,20.53
2023-05-08T20:49:17.070Z,20.57
2023-05-08T20:51:44.275Z,20.80
2023-05-08T20:54:11.480Z,20.80
2023-05-08T20:56:38.684Z,20.77
2023-05-08T20:59:05.875Z,21.73
2023-05-08T21:01:33.105Z,21.30
2023-05-08T21:04:00.305Z,21.43
2023-05-08T21:06:27.515Z,21.47
2023-05-08T21:08:54.860Z,20.37
2023-05-08T21:11:22.131Z,20.77
2023-05-08T21:13:49.264Z,20.73
2023-05-08T21:16:16.538Z,20.73
2023-05-08T21:18:43.787Z,19.87
2023-05-08T21:21:19.211Z,20.97
2023-05-08T21:23:46.461Z,21.00
2023-05-08T21:26:13.697Z,20.73
2023-05-08T21:28:40.888Z,20.30
2023-05-08T21:31:08.169Z,20.80
2023-05-08T21:33:35.579Z,20.00
2023-05-08T21:36:02.821Z,19.77
2023-05-08T21:38:30.038Z,20.37
2023-05-08T21:40:57.279Z,20.03
2023-05-08T21:43:24.450Z,18.37
2023-05-08T21:45:51.633Z,20.37
2023-05-08T21:48:18.824Z,19.47
2023-05-08T21:50:45.976Z,18.87
2023-05-08T21:53:13.201Z,19.13
2023-05-08T21:55:40.338Z,19.40
2023-05-08T21:58:07.473Z,18.27
2023-05-08T22:00:34.674Z,18.50
2023-05-08T22:03:01.898Z,17.77
2023-05-08T22:05:29.124Z,17.40
2023-05-08T22:07:56.300Z,19.03
2023-05-08T22:10:25.410Z,19.10
2023-05-08T22:12:52.721Z,17.07
2023-05-08T22:15:29.749Z,17.33
2023-05-08T22:17:58.357Z,17.03
2023-05-08T22:20:25.638Z,17.03
2023-05-08T22:22:52.781Z,17.50
2023-05-08T22:25:21.636Z,17.33
2023-05-08T22:27:48.951Z,16.77
2023-05-08T22:30:16.198Z,16.70
2023-05-08T22:32:43.440Z,16.03
2023-05-08T22:35:10.818Z,16.03
2023-05-08T22:37:38.107Z,17.10
2023-05-08T22:40:06.034Z,17.00
2023-05-08T22:42:33.195Z,15.43
2023-05-08T22:45:01.100Z,16.43
2023-05-08T22:47:28.390Z,15.53
2023-05-08T22:49:55.579Z,15.47
2023-05-08T22:52:22.819Z,15.40
2023-05-08T22:54:49.991Z,15.23
2023-05-08T22:57:17.153Z,16.27
2023-05-08T22:59:44.397Z,15.87
2023-05-08T23:02:11.623Z,16.13
2023-05-08T23:04:38.845Z,16.23
2023-05-08T23:07:06.009Z,16.23
2023-05-08T23:09:33.191Z,15.83
2023-05-08T23:12:00.348Z,16.07
2023-05-08T23:14:27.686Z,16.17
2023-05-08T23:16:54.959Z,16.43
2023-05-08T23:19:22.188Z,15.87
2023-05-08T23:21:49.449Z,14.33
2023-05-08T23:24:19.837Z,15.20
2023-05-08T23:26:49.483Z,15.67
2023-05-08T23:29:16.619Z,15.47
2023-05-08T23:31:43.880Z,15.70
2023-05-08T23:34:11.118Z,16.07
2023-05-08T23:36:38.260Z,15.90
2023-05-08T23:39:05.507Z,15.50
2023-05-08T23:41:33.948Z,17.20
2023-05-08T23:44:01.144Z,16.70
2023-05-08T23:46:28.404Z,16.87
2023-05-08T23:48:55.876Z,16.70
2023-05-08T23:51:23.093Z,16.77
2023-05-08T23:53:50.788Z,16.57
2023-05-08T23:56:17.976Z,17.30
2023-05-08T23:58:45.138Z,16.53
